Time;durP1;ratioP1;P1;durP2;ratioP2;P2;SDS_P1;SDS_P2;PMS_P1;PMS_P2;Temp;Humidity;BMP_temperature;BMP_pressure;BME280_temperature;BME280_humidity;BME280_pressure;Samples;Min_cycle;Max_cycle;Signal;HPM_P1;HPM_P2
2022/08/31 00:06:06;;;;;;;7.47;4.65;;;;;;;16.26;68.57;99510.93;1627196;88;20200;-78
2022/08/31 00:08:32;;;;;;;27.85;5.05;;;;;;;16.21;68.71;99516.98;1627087;88;21091;-78
2022/08/31 00:10:59;;;;;;;10.48;4.72;;;;;;;16.19;68.78;99521.53;1627165;88;21114;-78
2022/08/31 00:13:27;;;;;;;6.78;4.83;;;;;;;16.14;68.78;99518.29;1626910;88;21105;-77
2022/08/31 00:15:55;;;;;;;6.80;5.00;;;;;;;16.09;69.28;99525.66;1627134;88;21070;-78
2022/08/31 00:18:21;;;;;;;10.48;5.33;;;;;;;16.06;69.31;99517.39;1627035;88;21087;-78
2022/08/31 00:20:48;;;;;;;9.88;5.10;;;;;;;16.03;69.45;99520.21;1604023;88;21446;-78
2022/08/31 00:23:15;;;;;;;7.72;4.90;;;;;;;16.01;69.66;99527.41;1626911;88;21153;-78
2022/08/31 00:25:44;;;;;;;9.70;5.17;;;;;;;15.97;69.94;99518.77;1626763;88;21098;-79
2022/08/31 00:28:12;;;;;;;14.40;5.00;;;;;;;15.96;70.21;99518.38;1627212;88;21047;-79
2022/08/31 00:30:39;;;;;;;10.32;5.50;;;;;;;15.96;70.06;99517.53;1626885;88;21062;-78
2022/08/31 00:33:06;;;;;;;9.63;4.97;;;;;;;15.92;70.16;99519.95;1627096;88;21067;-77
2022/08/31 00:35:35;;;;;;;5.87;4.92;;;;;;;15.86;70.46;99519.84;1627015;88;21229;-78
2022/08/31 00:38:03;;;;;;;10.68;4.87;;;;;;;15.85;70.26;99516.80;1627025;88;21543;-78
2022/08/31 00:40:29;;;;;;;7.67;5.03;;;;;;;15.82;70.00;99518.77;1627203;88;20942;-78
2022/08/31 00:42:58;;;;;;;7.72;5.55;;;;;;;15.75;70.49;99517.81;1626768;88;21552;-79
2022/08/31 00:45:25;;;;;;;11.33;5.55;;;;;;;15.72;70.41;99517.09;1626860;88;21095;-78
2022/08/31 00:47:52;;;;;;;10.82;4.87;;;;;;;15.70;70.61;99516.30;1626966;88;22195;-78
2022/08/31 00:50:20;;;;;;;8.38;4.85;;;;;;;15.66;70.48;99516.95;1626758;88;21585;-78
2022/08/31 00:52:54;;;;;;;10.18;5.22;;;;;;;15.64;70.51;99523.30;1626939;88;21590;-78
2022/08/31 00:55:28;;;;;;;6.22;5.15;;;;;;;15.57;70.98;99523.63;1630196;87;21700;-78
2022/08/31 00:57:56;;;;;;;;;;;;;;;15.55;71.10;99526.84;1628704;87;21142;-78
2022/08/31 01:00:25;;;;;;;9.88;4.83;;;;;;;15.52;71.19;99520.37;1632456;87;21134;-78
2022/08/31 01:02:52;;;;;;;9.55;5.20;;;;;;;15.51;71.57;99523.95;1636203;87;21086;-78
2022/08/31 01:05:19;;;;;;;8.93;4.90;;;;;;;15.49;71.72;99521.86;1637745;87;21143;-78
2022/08/31 01:07:46;;;;;;;7.00;5.10;;;;;;;15.46;71.91;99523.34;1636051;87;21114;-79
2022/08/31 01:10:19;;;;;;;6.65;5.15;;;;;;;15.44;72.00;99523.91;1636134;87;21671;-79
2022/08/31 01:12:47;;;;;;;9.08;5.42;;;;;;;15.42;72.21;99527.13;1636257;87;21244;-79
2022/08/31 01:15:14;;;;;;;8.38;5.03;;;;;;;15.41;72.28;99524.07;1636082;87;21133;-79
2022/08/31 01:17:40;;;;;;;8.03;5.28;;;;;;;15.44;72.31;99528.36;1636106;87;21668;-76
2022/08/31 01:20:26;;;;;;;10.43;5.50;;;;;;;15.42;71.99;99527.13;1636220;87;21186;-79
2022/08/31 01:23:16;;;;;;;11.03;5.62;;;;;;;15.41;72.36;99523.59;1634798;87;21576;-78
2022/08/31 01:25:43;;;;;;;10.13;5.83;;;;;;;15.42;72.25;99529.77;1585345;87;21254;-78
2022/08/31 01:28:10;;;;;;;11.57;6.28;;;;;;;15.40;72.08;99527.68;1636282;87;21018;-78
2022/08/31 01:30:38;;;;;;;8.83;5.33;;;;;;;15.40;72.42;99526.36;1636441;87;21545;-78
2022/08/31 01:33:05;;;;;;;7.50;5.33;;;;;;;15.42;72.82;99529.77;1636176;87;21074;-78
2022/08/31 01:35:32;;;;;;;8.90;5.37;;;;;;;15.45;72.61;99530.94;1636206;87;21042;-77
2022/08/31 01:37:59;;;;;;;8.78;5.30;;;;;;;15.45;72.73;99524.75;1636407;87;21108;-77
2022/08/31 01:40:34;;;;;;;9.40;5.87;;;;;;;15.45;72.33;99528.28;1636186;87;21050;-78
2022/08/31 01:43:00;;;;;;;8.35;5.15;;;;;;;15.46;71.86;99523.83;1636504;87;21632;-78
2022/08/31 01:45:27;;;;;;;9.15;5.75;;;;;;;15.43;72.10;99516.88;1636257;87;20988;-77
2022/08/31 01:47:53;;;;;;;8.30;5.03;;;;;;;15.41;71.84;99522.74;1636469;87;21031;-77
2022/08/31 01:50:20;;;;;;;7.05;5.28;;;;;;;15.36;71.95;99523.47;1636214;87;21219;-77
2022/08/31 01:52:47;;;;;;;8.38;5.28;;;;;;;15.35;72.35;99523.09;1636289;87;21059;-78
2022/08/31 01:55:14;;;;;;;11.30;5.72;;;;;;;15.35;72.64;99519.13;1636418;87;21043;-78
2022/08/31 01:57:41;;;;;;;7.75;5.00;;;;;;;15.36;72.39;99525.64;1636341;87;21053;-78
2022/08/31 02:00:13;;;;;;;7.15;4.97;;;;;;;15.33;72.34;99519.66;1632798;87;21118;-77
2022/08/31 02:02:42;;;;;;;16.50;5.45;;;;;;;15.30;72.45;99518.04;1627074;88;21248;-76
2022/08/31 02:05:09;;;;;;;7.12;4.92;;;;;;;15.29;73.19;99523.42;1626936;88;21088;-78
2022/08/31 02:07:37;;;;;;;7.12;5.03;;;;;;;15.30;74.04;99518.48;1627000;88;21095;-78
2022/08/31 02:10:05;;;;;;;9.85;5.55;;;;;;;15.32;73.57;99512.66;1626969;88;21110;-78
2022/08/31 02:12:33;;;;;;;9.40;5.05;;;;;;;15.34;73.41;99509.45;1627009;88;21515;-78
2022/08/31 02:15:00;;;;;;;6.10;4.62;;;;;;;15.33;72.94;99509.05;1626876;88;21376;-79
2022/08/31 02:17:27;;;;;;;9.80;4.70;;;;;;;15.34;72.58;99502.82;1626882;88;21071;-78
2022/08/31 02:19:53;;;;;;;7.05;4.83;;;;;;;15.34;73.26;99506.31;1626869;88;21084;-77
2022/08/31 02:22:20;;;;;;;11.60;4.60;;;;;;;15.35;73.31;99508.52;1627209;88;21087;-78
2022/08/31 02:24:47;;;;;;;5.62;4.45;;;;;;;15.34;72.78;99497.04;1627018;88;21106;-78
2022/08/31 02:27:13;;;;;;;7.15;4.70;;;;;;;15.34;72.29;99494.86;1626971;88;21831;-78
2022/08/31 02:29:41;;;;;;;6.20;4.58;;;;;;;15.35;72.54;99492.61;1627072;88;21487;-77
2022/08/31 02:32:09;;;;;;;10.35;5.12;;;;;;;15.35;72.50;99500.09;1627129;88;21039;-78
2022/08/31 02:34:39;;;;;;;6.37;4.80;;;;;;;15.35;72.52;99501.89;1627228;88;21162;-78
2022/08/31 02:37:07;;;;;;;9.45;4.67;;;;;;;15.34;72.85;99501.49;1626842;88;21577;-78
2022/08/31 02:39:34;;;;;;;11.10;4.92;;;;;;;15.32;73.63;99497.59;1627056;87;21237;-78
2022/08/31 02:42:00;;;;;;;7.95;4.90;;;;;;;15.32;73.64;99503.38;1627100;87;21118;-78
2022/08/31 02:44:27;;;;;;;8.13;4.80;;;;;;;15.33;73.55;99498.45;1627078;88;21091;-77
2022/08/31 02:46:54;;;;;;;4.72;4.12;;;;;;;15.31;73.97;99506.95;1627151;88;21538;-78
2022/08/31 02:49:38;;;;;;;8.93;4.77;;;;;;;15.30;73.72;99506.55;1626936;88;21118;-78
2022/08/31 02:52:05;;;;;;;10.85;4.62;;;;;;;15.27;73.56;99507.59;1627078;88;21189;-79
2022/08/31 02:54:31;;;;;;;8.55;4.55;;;;;;;15.23;73.35;99501.61;1627130;88;21122;-78
2022/08/31 02:56:59;;;;;;;8.33;4.60;;;;;;;15.20;73.17;99508.39;1626991;88;21055;-79
2022/08/31 02:59:26;;;;;;;8.45;4.85;;;;;;;15.21;73.62;99505.27;1627124;88;21177;-79
2022/08/31 03:01:54;;;;;;;6.60;5.50;;;;;;;15.21;74.04;99502.17;1626987;87;21091;-78
2022/08/31 03:04:21;;;;;;;8.18;5.25;;;;;;;15.20;73.93;99504.42;1627284;88;21099;-79
2022/08/31 03:06:48;;;;;;;12.10;5.45;;;;;;;15.20;74.79;99503.09;1626951;88;21095;-78
2022/08/31 03:09:14;;;;;;;8.80;5.05;;;;;;;15.18;75.28;99497.03;1627187;88;21146;-78
2022/08/31 03:11:42;;;;;;;6.20;4.45;;;;;;;15.18;74.99;99504.10;1626951;88;21137;-78
2022/08/31 03:14:08;;;;;;;8.80;4.58;;;;;;;15.16;74.28;99504.22;1627085;88;21133;-78
2022/08/31 03:16:39;;;;;;;10.68;5.53;;;;;;;15.15;74.20;99501.16;1627000;88;21819;-77
2022/08/31 03:19:07;;;;;;;12.03;5.45;;;;;;;15.15;74.54;99497.67;1626822;88;21082;-78
2022/08/31 03:21:35;;;;;;;9.53;5.17;;;;;;;15.16;75.15;99500.23;1627160;88;21208;-78
2022/08/31 03:24:02;;;;;;;13.03;5.40;;;;;;;15.13;74.71;99500.39;1626934;88;21735;-78
2022/08/31 03:26:29;;;;;;;12.68;5.28;;;;;;;15.12;74.97;99497.34;1627044;88;21146;-78
2022/08/31 03:28:56;;;;;;;13.75;5.85;;;;;;;15.13;75.25;99503.05;1627058;88;21192;-78
2022/08/31 03:31:24;;;;;;;12.85;6.20;;;;;;;15.13;75.98;99503.05;1623412;88;21173;-78
2022/08/31 03:33:51;;;;;;;14.75;6.45;;;;;;;15.11;76.74;99506.70;1627005;88;21028;-78
2022/08/31 03:36:18;;;;;;;10.48;6.85;;;;;;;15.07;76.94;99506.02;1627031;88;21158;-79
2022/08/31 03:38:44;;;;;;;17.00;7.90;;;;;;;15.05;77.18;99507.90;1627053;88;21138;-78
2022/08/31 03:41:15;;;;;;;19.95;8.50;;;;;;;15.06;77.41;99505.61;1626893;88;21150;-79
2022/08/31 03:43:41;;;;;;;21.70;9.70;;;;;;;15.04;77.70;99508.34;1626474;87;21110;-79
2022/08/31 03:46:09;;;;;;;17.10;9.88;;;;;;;15.02;77.93;99508.05;1627142;88;21099;-79
2022/08/31 03:48:36;;;;;;;13.35;8.13;;;;;;;15.00;78.10;99507.28;1626749;88;21102;-78
2022/08/31 03:51:03;;;;;;;18.60;9.43;;;;;;;15.00;77.72;99505.97;1627177;88;21708;-79
2022/08/31 03:53:33;;;;;;;19.15;10.00;;;;;;;15.01;77.43;99510.30;1627188;87;23124;-78
2022/08/31 03:56:02;;;;;;;21.80;10.80;;;;;;;15.04;77.31;99511.47;1626862;87;22309;-78
2022/08/31 03:58:30;;;;;;;18.00;10.15;;;;;;;15.05;77.24;99514.52;1627313;88;21122;-78
2022/08/31 04:00:56;;;;;;;16.45;9.70;;;;;;;15.08;77.42;99514.81;1630543;87;21152;-79
2022/08/31 04:03:28;;;;;;;21.12;9.33;;;;;;;15.09;77.53;99514.73;1633762;87;21177;-78
2022/08/31 04:06:13;;;;;;;17.42;8.30;;;;;;;15.11;77.84;99515.50;1636001;86;21085;-78
2022/08/31 04:08:58;;;;;;;14.25;7.65;;;;;;;15.12;78.27;99502.65;1636401;87;21098;-78
2022/08/31 04:11:32;;;;;;;14.10;6.70;;;;;;;15.11;78.83;99512.84;1632676;87;21542;-78
2022/08/31 04:14:10;;;;;;;9.73;6.28;;;;;;;15.09;79.63;99513.41;1584739;90;21292;-78
2022/08/31 04:16:39;;;;;;;9.95;5.53;;;;;;;15.07;80.26;99515.29;1636378;87;21691;-78
2022/08/31 04:19:26;;;;;;;11.38;5.67;;;;;;;15.06;80.82;99522.84;1635168;87;21134;-78
2022/08/31 04:21:56;;;;;;;9.58;5.28;;;;;;;15.06;81.14;99517.54;1635527;87;21035;-77
2022/08/31 04:24:22;;;;;;;11.22;5.12;;;;;;;15.09;81.45;99525.81;1636233;87;21819;-78
2022/08/31 04:26:50;;;;;;;10.30;5.60;;;;;;;15.12;81.78;99526.98;1636391;87;21027;-78
2022/08/31 04:29:17;;;;;;;9.73;5.55;;;;;;;15.17;81.88;99523.61;1636263;87;21094;-78
2022/08/31 04:31:44;;;;;;;7.72;4.97;;;;;;;15.21;82.14;99524.70;1636379;87;21177;-78
2022/08/31 04:34:12;;;;;;;7.05;4.72;;;;;;;15.26;82.22;99520.93;1636068;87;21137;-78
2022/08/31 04:36:39;;;;;;;10.13;5.85;;;;;;;15.30;82.46;99522.46;1636383;87;21031;-79
2022/08/31 04:39:06;;;;;;;5.60;4.75;;;;;;;15.35;82.49;99529.25;1636140;87;21095;-79
2022/08/31 04:41:36;;;;;;;9.75;5.50;;;;;;;15.40;82.48;99527.20;1636250;87;21153;-79
2022/08/31 04:44:03;;;;;;;12.73;5.20;;;;;;;15.46;82.19;99519.84;1615156;87;21774;-78
2022/08/31 04:46:30;;;;;;;9.68;5.12;;;;;;;15.52;82.11;99528.80;1636310;87;21015;-78
2022/08/31 04:48:58;;;;;;;11.22;5.30;;;;;;;15.57;82.11;99530.25;1636154;86;21101;-78
2022/08/31 04:51:28;;;;;;;12.80;4.78;;;;;;;15.66;81.86;99529.36;1636302;86;21125;-78
2022/08/31 04:53:55;;;;;;;8.70;5.05;;;;;;;15.75;81.79;99528.84;1636453;87;21525;-79
2022/08/31 04:56:25;;;;;;;9.65;5.55;;;;;;;15.83;81.41;99531.95;1636293;86;21290;-78
2022/08/31 04:58:55;;;;;;;9.68;4.92;;;;;;;15.89;81.34;99530.77;1636185;87;21101;-79
2022/08/31 05:01:25;;;;;;;5.20;4.70;;;;;;;15.93;81.17;99523.01;1636128;87;21635;-79
2022/08/31 05:03:57;;;;;;;8.00;5.20;;;;;;;16.00;81.16;99528.83;1636253;87;21166;-79
2022/08/31 05:06:29;;;;;;;8.08;4.87;;;;;;;16.05;80.92;99534.24;1636136;87;21142;-78
2022/08/31 05:09:02;;;;;;;5.67;4.15;;;;;;;16.10;80.90;99531.34;1636233;87;21237;-79
2022/08/31 05:11:28;;;;;;;10.10;4.58;;;;;;;16.18;80.72;99529.58;1636171;86;21055;-79
2022/08/31 05:13:56;;;;;;;8.50;4.40;;;;;;;16.25;80.21;99531.77;1636522;87;21541;-79
2022/08/31 05:16:23;;;;;;;5.00;4.53;;;;;;;16.29;79.89;99532.00;1636074;87;21442;-79
2022/08/31 05:18:50;;;;;;;7.55;4.20;;;;;;;16.32;79.82;99538.46;1636146;87;21010;-79
2022/08/31 05:21:30;;;;;;;8.43;4.47;;;;;;;16.37;79.94;99530.69;1636447;87;21093;-77
2022/08/31 05:23:57;;;;;;;4.83;4.08;;;;;;;16.43;79.88;99530.34;1635344;87;21601;-79
2022/08/31 05:26:29;;;;;;;5.03;3.90;;;;;;;16.56;79.62;99535.31;1635919;87;21619;-79
2022/08/31 05:28:57;;;;;;;8.78;4.60;;;;;;;16.64;79.29;99533.52;1636171;87;23185;-79
2022/08/31 05:31:25;;;;;;;5.25;3.98;;;;;;;16.71;79.00;99538.38;1613381;87;21157;-79
2022/08/31 05:33:52;;;;;;;5.85;4.35;;;;;;;16.78;78.92;99527.36;1636211;87;21135;-79
2022/08/31 05:36:21;;;;;;;5.30;3.92;;;;;;;16.87;78.50;99525.05;1635766;87;21121;-79
2022/08/31 05:38:47;;;;;;;4.95;3.90;;;;;;;16.95;77.76;99524.59;1636518;86;21121;-80
2022/08/31 05:41:14;;;;;;;7.35;4.17;;;;;;;17.02;77.45;99528.58;1636083;87;21149;-78
2022/08/31 05:43:41;;;;;;;7.60;4.20;;;;;;;17.06;77.14;99524.80;1636178;87;21420;-79
2022/08/31 05:46:10;;;;;;;12.47;4.20;;;;;;;17.16;77.19;99528.20;1636062;87;21795;-79
2022/08/31 05:48:38;;;;;;;7.08;3.80;;;;;;;17.24;76.97;99526.77;1616193;86;21174;-80
2022/08/31 05:51:09;;;;;;;6.05;3.42;;;;;;;17.33;76.63;99530.69;1636196;86;22175;-79
2022/08/31 05:53:35;;;;;;;7.65;3.60;;;;;;;17.41;76.44;99532.38;1636120;87;21098;-79
2022/08/31 05:56:10;;;;;;;9.93;3.98;;;;;;;17.52;76.36;99523.73;1636339;87;21133;-80
2022/08/31 05:58:40;;;;;;;6.83;4.60;;;;;;;17.61;76.10;99531.11;1636193;87;21225;-79
2022/08/31 06:01:17;;;;;;;4.08;3.77;;;;;;;17.72;75.60;99525.12;1636044;87;21018;-79
2022/08/31 06:04:04;;;;;;;5.95;3.58;;;;;;;17.82;75.80;99526.73;1636312;87;21028;-79
2022/08/31 06:06:30;;;;;;;8.38;3.10;;;;;;;17.99;74.75;99524.33;1636164;87;21039;-79
2022/08/31 06:08:57;;;;;;;5.40;3.33;;;;;;;18.10;74.40;99524.45;1636052;87;21074;-79
2022/08/31 06:11:28;;;;;;;5.87;3.50;;;;;;;18.18;74.38;99532.80;1636202;87;21982;-79
2022/08/31 06:13:58;;;;;;;13.53;4.25;;;;;;;18.30;73.86;99524.96;1636118;87;21531;-76
2022/08/31 06:16:25;;;;;;;4.85;3.87;;;;;;;18.40;73.86;99523.39;1636146;87;21050;-79
2022/08/31 06:18:54;;;;;;;7.03;3.00;;;;;;;18.54;73.22;99519.33;1636057;87;21115;-79
2022/08/31 06:21:27;;;;;;;5.72;2.85;;;;;;;18.68;72.52;99520.20;1636169;87;21122;-80
2022/08/31 06:23:59;;;;;;;7.25;3.22;;;;;;;18.85;72.52;99520.41;1636798;86;21210;-79
2022/08/31 06:26:25;;;;;;;10.60;3.10;;;;;;;19.02;71.82;99516.58;1635340;87;21090;-80
2022/08/31 06:28:54;;;;;;;7.65;3.47;;;;;;;19.15;70.51;99517.42;1636561;87;21552;-79
2022/08/31 06:31:28;;;;;;;6.55;3.40;;;;;;;19.22;70.24;99522.69;1636111;87;21071;-79
2022/08/31 06:33:57;;;;;;;12.25;3.02;;;;;;;19.35;70.35;99521.81;1637556;87;21131;-79
2022/08/31 06:36:35;;;;;;;16.80;3.72;;;;;;;19.49;69.43;99525.70;1584620;90;21227;-80
2022/08/31 06:39:20;;;;;;;;;;;;;;;19.56;68.81;99522.95;1638579;87;21103;-78
2022/08/31 06:41:57;;;;;;;5.37;2.80;;;;;;;19.62;68.22;99521.19;1633839;87;20221;-80
2022/08/31 06:44:28;;;;;;;5.10;2.17;;;;;;;19.68;67.56;99522.06;1635670;87;21114;-80
2022/08/31 06:46:57;;;;;;;6.60;2.58;;;;;;;19.75;67.60;99522.98;1634693;87;21120;-80
2022/08/31 06:49:26;;;;;;;11.50;2.27;;;;;;;19.90;66.92;99523.20;1636434;87;21165;-80
2022/08/31 06:51:53;;;;;;;14.00;6.85;;;;;;;19.99;66.78;99525.70;1636432;87;21715;-80
2022/08/31 06:54:20;;;;;;;6.58;3.27;;;;;;;20.04;66.15;99516.38;1636226;87;21595;-80
2022/08/31 06:57:05;;;;;;;18.92;8.73;;;;;;;20.09;66.08;99514.70;1636305;87;21110;-79
2022/08/31 06:59:37;;;;;;;15.45;4.05;;;;;;;20.18;65.96;99522.52;1606362;87;21109;-80
2022/08/31 07:02:15;;;;;;;10.35;3.40;;;;;;;20.31;65.40;99522.42;1583767;90;21834;-80
2022/08/31 07:04:42;;;;;;;13.48;2.70;;;;;;;20.45;64.70;99530.27;1664695;86;21085;-79
2022/08/31 07:07:10;;;;;;;6.30;2.65;;;;;;;20.51;64.24;99524.94;1634647;87;21141;-79
2022/08/31 07:09:38;;;;;;;3.83;2.42;;;;;;;20.54;64.03;99525.58;1634513;87;21596;-80
2022/08/31 07:12:06;;;;;;;8.55;2.67;;;;;;;20.59;64.21;99526.54;1634803;87;21664;-81
2022/08/31 07:14:33;;;;;;;5.10;2.15;;;;;;;20.64;63.56;99523.06;1634383;87;21243;-80
2022/08/31 07:17:02;;;;;;;4.00;2.20;;;;;;;20.65;63.85;99523.94;1634379;86;21563;-79
2022/08/31 07:19:30;;;;;;;2.98;1.60;;;;;;;20.65;64.06;99527.45;1634561;87;21147;-81
2022/08/31 07:21:59;;;;;;;4.47;2.40;;;;;;;20.66;63.47;99523.83;1634342;87;21692;-81
2022/08/31 07:24:29;;;;;;;4.10;1.80;;;;;;;20.70;63.69;99520.42;1634754;87;21111;-80
2022/08/31 07:27:04;;;;;;;12.63;2.00;;;;;;;20.77;64.11;99523.83;1634263;87;21157;-79
2022/08/31 07:29:39;;;;;;;2.27;1.85;;;;;;;20.92;63.30;99522.30;1633809;86;21068;-81
2022/08/31 07:32:07;;;;;;;6.47;2.30;;;;;;;21.09;62.32;99527.16;1634208;87;21635;-81
2022/08/31 07:34:35;;;;;;;6.05;2.55;;;;;;;21.15;62.72;99528.53;1634509;87;21625;-81
2022/08/31 07:42:45;;;;;;;;;;;;;;;21.22;61.41;99528.90;1636875;87;21878;-79
2022/08/31 07:45:20;;;;;;;4.08;1.70;;;;;;;21.13;61.60;99525.97;1634353;87;20156;-79
2022/08/31 07:47:50;;;;;;;4.80;1.90;;;;;;;21.02;61.88;99524.61;1634350;87;21082;-80
2022/08/31 07:50:18;;;;;;;4.95;1.45;;;;;;;20.92;61.96;99526.30;1634618;86;21109;-80
2022/08/31 07:53:05;;;;;;;4.63;1.80;;;;;;;21.01;62.05;99517.55;1582251;90;21068;-80
2022/08/31 07:55:49;;;;;;;11.88;1.40;;;;;;;21.01;62.05;99517.55;1628410;86;21509;-81
2022/08/31 07:58:26;;;;;;;3.40;1.37;;;;;;;21.16;61.85;99527.53;1622548;86;21009;-79
2022/08/31 08:00:52;;;;;;;3.02;2.25;;;;;;;21.32;61.52;99526.70;1634482;87;21617;-79
2022/08/31 08:03:18;;;;;;;5.17;2.30;;;;;;;21.39;60.57;99523.05;1621190;87;21020;-79
2022/08/31 08:06:05;;;;;;;;;;;;;;;21.36;60.73;99519.27;1621068;88;21241;-80
2022/08/31 08:08:36;;;;;;;5.58;1.40;;;;;;;21.30;60.58;99529.12;1629396;87;20537;-80
2022/08/31 08:11:05;;;;;;;5.12;2.65;;;;;;;21.21;61.22;99516.48;1619377;88;21058;-79
2022/08/31 08:13:39;;;;;;;3.05;2.67;;;;;;;21.31;61.51;99520.13;1618928;88;21519;-80
2022/08/31 08:16:08;;;;;;;1.65;1.55;;;;;;;21.51;61.47;99504.69;1618820;88;21067;-81
2022/08/31 08:18:37;;;;;;;5.90;2.52;;;;;;;21.74;59.01;99506.02;1618755;88;21634;-80
2022/08/31 08:21:04;;;;;;;6.22;2.30;;;;;;;21.78;58.59;99505.27;1618702;88;21025;-77
2022/08/31 08:23:31;;;;;;;3.52;1.60;;;;;;;21.73;59.34;99498.94;1618709;88;21005;-80
2022/08/31 08:26:10;;;;;;;5.30;1.87;;;;;;;21.82;59.13;99494.19;1618549;88;21090;-80
2022/08/31 08:28:45;;;;;;;6.37;1.40;;;;;;;21.95;59.07;99483.30;1614492;88;21166;-80
2022/08/31 08:31:18;;;;;;;9.30;1.67;;;;;;;22.08;59.15;99493.86;1618407;88;21696;-80
2022/08/31 08:33:45;;;;;;;7.03;1.92;;;;;;;22.25;59.04;99489.27;1618949;87;22047;-81
2022/08/31 08:36:16;;;;;;;1.72;1.45;;;;;;;22.48;58.41;99505.30;1618524;87;21102;-80
2022/08/31 08:38:45;;;;;;;4.08;2.00;;;;;;;22.59;56.54;99478.44;1618594;88;21063;-79
2022/08/31 08:41:18;;;;;;;5.15;1.77;;;;;;;22.63;57.28;99479.02;1619016;88;21052;-80
2022/08/31 08:43:52;;;;;;;2.75;1.50;;;;;;;22.73;56.83;99479.92;1618854;88;21597;-80
2022/08/31 08:46:29;;;;;;;5.62;1.50;;;;;;;22.71;55.84;99486.39;1618502;88;21143;-81
2022/08/31 08:48:59;;;;;;;1.55;1.30;;;;;;;22.57;55.73;99483.05;1618789;88;21594;-81
2022/08/31 08:51:31;;;;;;;4.25;1.40;;;;;;;22.36;56.19;99490.23;1618845;88;21103;-80
2022/08/31 08:54:05;;;;;;;2.85;1.07;;;;;;;22.15;56.47;99488.34;1618629;88;21020;-80
2022/08/31 08:56:47;;;;;;;2.42;1.20;;;;;;;22.04;58.00;99483.02;1618509;88;21841;-80
2022/08/31 08:59:03;;;;;;;3.22;1.22;;;;;;;22.08;57.65;99487.16;1616796;88;21085;-79
2022/08/31 09:01:34;;;;;;;4.05;1.60;;;;;;;22.10;57.65;99479.84;1618414;88;21146;-81
2022/08/31 09:04:30;;;;;;;1.72;1.25;;;;;;;22.18;57.96;99489.43;1629320;87;21595;-80
2022/08/31 09:07:30;;;;;;;5.22;1.75;;;;;;;22.18;57.28;99481.89;1606967;88;21085;-81
2022/08/31 09:10:23;;;;;;;2.90;1.15;;;;;;;22.15;57.03;99486.16;1606913;89;21859;-81
2022/08/31 09:13:20;;;;;;;5.50;1.17;;;;;;;22.01;57.15;99477.94;1599489;89;21139;-80
2022/08/31 09:16:10;;;;;;;12.00;1.07;;;;;;;21.98;57.83;99480.87;1541321;91;21131;-80
2022/08/31 09:18:45;;;;;;;5.12;1.00;;;;;;;22.15;56.51;99480.30;1604230;89;21079;-79
2022/08/31 09:21:20;;;;;;;3.20;1.10;;;;;;;22.39;55.20;99481.93;1606730;89;21102;-79
2022/08/31 09:24:00;;;;;;;4.78;1.47;;;;;;;22.63;54.89;99477.17;1607050;89;21592;-80
2022/08/31 09:26:34;;;;;;;2.87;1.02;;;;;;;22.84;55.21;99476.30;1579815;89;21569;-79
2022/08/31 09:29:12;;;;;;;4.03;1.32;;;;;;;23.00;54.62;99476.67;1607145;89;21155;-76
2022/08/31 09:31:38;;;;;;;4.70;1.42;;;;;;;23.10;53.97;99482.59;1606167;88;21114;-81
2022/08/31 09:34:11;;;;;;;2.02;1.20;;;;;;;23.08;53.35;99484.57;1607248;89;21153;-81
2022/08/31 09:36:39;;;;;;;2.90;0.90;;;;;;;22.98;52.58;99486.70;1607027;88;21841;-80
2022/08/31 09:39:16;;;;;;;2.60;0.93;;;;;;;22.96;52.98;99480.63;1606993;89;21063;-81
2022/08/31 09:41:43;;;;;;;2.58;0.90;;;;;;;23.08;51.98;99476.05;1606810;89;21051;-80
2022/08/31 09:44:29;;;;;;;1.07;0.70;;;;;;;23.16;50.84;99475.36;1606694;89;21055;-80
2022/08/31 09:47:02;;;;;;;1.80;0.90;;;;;;;23.11;51.52;99480.28;1606828;89;21129;-79
2022/08/31 09:49:38;;;;;;;4.92;1.20;;;;;;;23.14;52.19;99463.92;1591032;89;21169;-80
2022/08/31 09:55:13;;;;;;;1.62;0.82;;;;;;;23.32;52.65;99466.31;1606794;89;20987;-80
2022/08/31 09:57:44;;;;;;;1.22;0.88;;;;;;;23.27;51.51;99464.53;1580058;89;21064;-81
2022/08/31 10:00:15;;;;;;;2.85;1.17;;;;;;;23.12;51.86;99471.27;1606962;89;21156;-80
2022/08/31 10:02:42;;;;;;;7.47;1.20;;;;;;;23.00;51.41;99472.66;1614566;87;21537;-80
2022/08/31 10:05:39;;;;;;;4.95;1.10;;;;;;;23.06;51.12;99470.41;1632011;87;21101;-77
2022/08/31 10:08:26;;;;;;;2.20;0.60;;;;;;;23.19;51.78;99469.73;1632635;87;21733;-80
2022/08/31 10:10:57;;;;;;;1.67;0.70;;;;;;;23.43;49.57;99467.20;1632324;87;21648;-80
2022/08/31 10:13:39;;;;;;;4.25;0.90;;;;;;;23.52;48.69;99465.05;1632277;87;21656;-81
2022/08/31 10:16:26;;;;;;;4.37;1.00;;;;;;;23.58;47.57;99453.73;1632231;87;21217;-80
2022/08/31 10:19:15;;;;;;;2.60;1.10;;;;;;;23.68;49.38;99446.54;1632097;87;21083;-80
2022/08/31 10:21:53;;;;;;;1.85;1.10;;;;;;;23.92;49.48;99449.35;1632282;87;21150;-80
2022/08/31 10:24:42;;;;;;;3.42;1.42;;;;;;;24.03;48.92;99458.63;1632568;87;21079;-80
2022/08/31 10:27:31;;;;;;;3.17;1.60;;;;;;;23.96;48.88;99462.88;1632605;87;21157;-80
2022/08/31 10:30:05;;;;;;;3.17;1.10;;;;;;;23.72;49.72;99454.69;1632517;87;21113;-79
2022/08/31 10:33:04;;;;;;;9.08;1.00;;;;;;;23.61;50.37;99454.80;1632172;87;22303;-80
2022/08/31 10:35:57;;;;;;;7.95;1.40;;;;;;;23.63;50.45;99462.73;1632222;87;21074;-80
2022/08/31 10:38:36;;;;;;;7.65;1.22;;;;;;;23.70;49.65;99456.67;1632278;87;21109;-80
2022/08/31 10:41:21;;;;;;;5.85;1.05;;;;;;;23.60;49.10;99458.47;1632450;87;21062;-79
2022/08/31 10:44:23;;;;;;;2.15;1.00;;;;;;;23.59;49.38;99458.59;1632235;87;21131;-80
2022/08/31 10:46:49;;;;;;;25.82;3.12;;;;;;;23.70;49.24;99451.30;1631817;87;21615;-79
2022/08/31 10:49:15;;;;;;;4.10;1.40;;;;;;;23.81;48.23;99447.63;1632405;87;21114;-80
2022/08/31 10:52:16;;;;;;;1.75;1.00;;;;;;;23.86;48.18;99445.91;1632193;87;21601;-81
2022/08/31 10:54:48;;;;;;;1.02;0.95;;;;;;;24.01;47.80;99445.84;1631809;87;21107;-79
2022/08/31 10:57:38;;;;;;;2.62;1.00;;;;;;;24.14;46.20;99441.53;1632297;87;21171;-80
2022/08/31 11:03:03;;;;;;;2.80;1.00;;;;;;;23.99;46.14;99442.92;1632150;87;21647;-79
2022/08/31 11:05:44;;;;;;;4.37;1.30;;;;;;;24.02;47.09;99440.80;1631265;87;21217;-81
2022/08/31 11:08:52;;;;;;;12.23;1.65;;;;;;;24.27;47.26;99442.06;1629597;87;21107;-80
2022/08/31 11:11:47;;;;;;;1.22;0.70;;;;;;;24.43;46.55;99442.84;1629522;88;21134;-80
2022/08/31 11:14:42;;;;;;;6.55;1.00;;;;;;;24.57;44.79;99448.28;1630080;87;21483;-80
2022/08/31 11:17:31;;;;;;;3.65;1.25;;;;;;;24.66;45.00;99441.18;1629680;87;21062;-79
2022/08/31 11:20:05;;;;;;;1.70;1.00;;;;;;;24.68;44.58;99444.59;1630028;88;21102;-80
2022/08/31 11:23:00;;;;;;;2.67;1.00;;;;;;;24.51;45.24;99447.98;1629769;88;21114;-80
2022/08/31 11:26:05;;;;;;;1.67;0.90;;;;;;;24.47;46.33;99454.98;1629753;87;21126;-79
2022/08/31 11:28:47;;;;;;;1.32;0.82;;;;;;;24.58;45.81;99443.75;1629601;88;21040;-80
2022/08/31 11:31:24;;;;;;;4.60;1.20;;;;;;;24.46;45.28;99445.24;1630086;88;21514;-76
2022/08/31 11:34:16;;;;;;;7.40;1.40;;;;;;;24.40;46.30;99449.84;1629835;88;21031;-80
2022/08/31 11:36:51;;;;;;;4.10;1.20;;;;;;;24.39;46.63;99437.87;1630052;87;21015;-79
2022/08/31 11:39:25;;;;;;;;;;;;;;;24.32;46.09;99445.67;1632151;87;21231;-79
2022/08/31 11:41:50;;;;;;;3.72;1.32;;;;;;;24.19;46.35;99444.64;1629541;88;20498;-79
2022/08/31 11:44:40;;;;;;;4.55;1.40;;;;;;;24.07;46.37;99443.94;1629729;87;21102;-79
2022/08/31 11:47:31;;;;;;;4.55;1.00;;;;;;;24.16;46.40;99437.33;1629695;88;21665;-79
2022/08/31 11:50:02;;;;;;;1.67;0.90;;;;;;;24.42;45.58;99441.12;1629906;87;21157;-80
2022/08/31 11:52:47;;;;;;;7.20;0.80;;;;;;;24.66;44.75;99431.77;1629905;87;21132;-79
2022/08/31 11:55:27;;;;;;;5.78;1.10;;;;;;;24.69;44.60;99438.20;1630059;87;21625;-80
2022/08/31 11:58:18;;;;;;;1.55;1.00;;;;;;;24.68;44.76;99428.45;1629198;88;21019;-80
2022/08/31 12:01:00;;;;;;;1.65;1.00;;;;;;;24.67;44.81;99429.44;1602047;88;21417;-80
2022/08/31 12:03:49;;;;;;;0.78;0.70;;;;;;;24.77;44.22;99426.22;1629947;87;21095;-79
2022/08/31 12:06:32;;;;;;;6.87;1.40;;;;;;;24.81;44.18;99423.60;1629632;87;21621;-79
2022/08/31 12:09:19;;;;;;;;;;;;;;;24.81;44.26;99420.91;1632133;88;21564;-80
2022/08/31 12:11:58;;;;;;;5.50;1.12;;;;;;;24.69;44.43;99415.33;1629761;87;20521;-79
2022/08/31 12:14:41;;;;;;;2.25;1.30;;;;;;;24.47;44.91;99411.12;1629838;87;21162;-79